Time;durP1;ratioP1;P1;durP2;ratioP2;P2;SDS_P1;SDS_P2;PMS_P1;PMS_P2;Temp;Humidity;BMP_temperature;BMP_pressure;BME280_temperature;BME280_humidity;BME280_pressure;Samples;Min_cycle;Max_cycle;Signal;HPM_P1;HPM_P2
2022/05/15 00:00:45;;;;;;;9.18;3.20;;;;;;;13.28;79.75;99890.66;10461829;28;20396;-76
2022/05/15 00:05:54;;;;;;;5.80;2.63;;;;;;;13.18;81.00;99904.31;10462552;28;20049;-76
2022/05/15 00:10:56;;;;;;;12.73;3.35;;;;;;;12.69;80.31;99852.72;10461140;28;20044;-76
2022/05/15 00:15:57;;;;;;;9.35;3.38;;;;;;;12.79;80.79;99873.72;10462274;28;20098;-78
2022/05/15 00:20:57;;;;;;;5.30;3.13;;;;;;;12.42;80.88;99821.56;10461558;28;20033;-78
2022/05/15 00:25:58;;;;;;;9.60;3.80;;;;;;;12.88;81.35;99895.72;10461390;28;20052;-77
2022/05/15 00:30:59;;;;;;;7.93;4.00;;;;;;;11.82;82.58;99757.94;10461170;28;20079;-77
2022/05/15 00:36:00;;;;;;;12.48;4.35;;;;;;;12.47;82.38;99872.41;10456841;28;20037;-76
2022/05/15 00:41:01;;;;;;;10.05;4.00;;;;;;;12.71;82.93;99906.66;10460089;28;20467;-77
2022/05/15 00:46:04;;;;;;;9.07;4.22;;;;;;;12.16;84.38;99841.63;10460574;28;20037;-76
2022/05/15 00:51:22;;;;;;;12.77;3.67;;;;;;;12.66;85.79;99911.75;10425481;28;20045;-76
2022/05/15 00:56:26;;;;;;;23.77;5.38;;;;;;;10.61;84.03;99601.81;10417979;28;20475;-76
2022/05/15 01:01:27;;;;;;;10.98;4.32;;;;;;;12.36;82.96;99891.59;10418162;28;20045;-77
2022/05/15 01:06:29;;;;;;;21.45;4.32;;;;;;;11.85;83.49;99845.41;10418299;28;20469;-77
2022/05/15 01:11:33;;;;;;;24.42;4.97;;;;;;;12.13;83.83;99897.91;10431939;28;20409;-77
2022/05/15 01:16:34;;;;;;;22.47;4.07;;;;;;;12.30;83.17;99920.63;10418607;28;20042;-76
2022/05/15 01:21:59;;;;;;;19.67;4.25;;;;;;;12.26;85.07;99926.50;10417959;28;20056;-77
2022/05/15 01:27:06;;;;;;;11.73;4.00;;;;;;;12.08;85.38;99948.22;10414408;28;20053;-76
2022/05/15 01:32:09;;;;;;;31.45;4.75;;;;;;;10.91;84.71;99748.72;10417460;28;20044;-77
2022/05/15 01:37:10;;;;;;;6.72;3.90;;;;;;;12.00;84.88;99941.19;10417917;28;20045;-77
2022/05/15 01:42:11;;;;;;;22.13;4.75;;;;;;;11.54;85.54;99880.22;10416733;28;20045;-77
2022/05/15 01:47:12;;;;;;;9.10;4.20;;;;;;;11.24;85.40;99834.22;10417717;28;20041;-77
2022/05/15 01:52:13;;;;;;;16.52;4.43;;;;;;;11.47;85.50;99859.88;10416574;28;20087;-76
2022/05/15 01:57:14;;;;;;;15.45;4.22;;;;;;;11.91;84.96;99937.00;10416790;28;20088;-76
2022/05/15 02:02:15;;;;;;;17.95;4.93;;;;;;;11.82;84.63;99892.84;10415823;28;20125;-77
2022/05/15 02:07:17;;;;;;;48.13;5.53;;;;;;;11.76;84.60;99899.72;10416013;28;20045;-79
2022/05/15 02:12:18;;;;;;;19.88;4.95;;;;;;;12.20;84.14;99944.06;10416137;28;20042;-77
2022/05/15 02:17:19;;;;;;;15.48;4.60;;;;;;;12.69;83.72;99980.66;10431040;28;20042;-77
2022/05/15 02:22:20;;;;;;;35.35;5.53;;;;;;;12.57;82.77;99926.22;10415263;28;20091;-77
2022/05/15 02:27:21;;;;;;;17.08;4.82;;;;;;;13.15;82.38;99966.88;10415406;28;20088;-77
2022/05/15 02:32:22;;;;;;;30.65;4.75;;;;;;;13.57;80.99;99956.31;10415456;28;20037;-76
2022/05/15 02:37:22;;;;;;;23.73;4.65;;;;;;;13.51;79.37;99850.34;10414424;28;20033;-77
2022/05/15 02:42:23;;;;;;;8.18;4.65;;;;;;;14.78;78.52;99975.25;10429711;28;20524;-77
2022/05/15 02:47:24;;;;;;;11.55;4.88;;;;;;;14.73;77.46;99881.44;10413911;28;20041;-77
2022/05/15 02:52:25;;;;;;;11.80;4.53;;;;;;;15.26;76.23;99855.44;10413856;28;20045;-79
2022/05/15 02:57:26;;;;;;;11.60;4.78;;;;;;;17.24;72.94;99996.56;10413818;28;20152;-75
2022/05/15 03:02:27;;;;;;;8.00;3.60;;;;;;;17.78;68.05;99874.13;10425997;28;20040;-77
2022/05/15 03:07:29;;;;;;;6.90;4.10;;;;;;;19.67;64.54;100001.81;10412935;28;20064;-78
2022/05/15 03:12:30;;;;;;;6.20;3.38;;;;;;;20.49;60.85;99977.31;10413854;28;20041;-78
2022/05/15 03:17:31;;;;;;;12.32;3.85;;;;;;;20.83;59.48;99954.97;10413866;28;20049;-77
2022/05/15 03:22:32;;;;;;;9.25;3.50;;;;;;;21.60;57.21;100001.03;10413956;28;20493;-77
2022/05/15 03:27:33;;;;;;;6.25;3.47;;;;;;;21.85;55.56;100024.88;10412755;28;20037;-78
2022/05/15 03:32:33;;;;;;;27.55;4.15;;;;;;;22.44;54.84;100021.56;10422233;28;20462;-78
2022/05/15 03:37:34;;;;;;;9.60;3.83;;;;;;;22.99;52.99;100027.81;10413875;28;20053;-78
2022/05/15 03:42:35;;;;;;;8.40;3.40;;;;;;;22.36;52.19;99908.34;10430699;28;20049;-77
2022/05/15 03:47:43;;;;;;;12.15;3.75;;;;;;;23.22;51.19;99972.44;10453637;28;20532;-78
2022/05/15 03:52:44;;;;;;;5.30;3.10;;;;;;;23.71;49.62;99953.22;10454263;28;20036;-78
2022/05/15 03:57:45;;;;;;;10.82;4.00;;;;;;;24.68;48.50;99988.00;10453563;28;20068;-79
2022/05/15 04:02:45;;;;;;;13.73;4.10;;;;;;;24.75;48.17;100026.59;10448798;28;20076;-78
2022/05/15 04:07:48;;;;;;;9.73;3.83;;;;;;;24.93;46.85;99993.44;10451572;28;20106;-78
2022/05/15 04:12:49;;;;;;;11.18;3.08;;;;;;;25.31;46.00;100002.16;10453410;28;20248;-78
2022/05/15 04:17:50;;;;;;;6.07;2.88;;;;;;;25.54;44.75;100038.81;10453099;28;20390;-77
2022/05/15 04:22:52;;;;;;;10.40;3.42;;;;;;;24.96;44.10;99971.16;10453311;28;20047;-77
2022/05/15 04:27:53;;;;;;;7.55;3.05;;;;;;;25.48;43.02;100035.28;10452458;28;20385;-78
2022/05/15 04:32:55;;;;;;;7.35;2.58;;;;;;;24.26;42.37;99824.22;10447064;28;20041;-80
2022/05/15 04:37:55;;;;;;;4.88;2.42;;;;;;;25.48;42.90;100040.72;10451458;28;20128;-78
2022/05/15 04:42:56;;;;;;;4.25;2.10;;;;;;;25.11;42.03;99997.53;10450381;28;20135;-77
2022/05/15 04:47:57;;;;;;;5.22;2.50;;;;;;;25.04;41.94;100022.25;10459683;28;20072;-77
2022/05/15 04:52:58;;;;;;;5.05;2.50;;;;;;;24.10;41.71;99936.53;10459670;28;20500;-79
2022/05/15 04:57:58;;;;;;;4.72;2.55;;;;;;;23.70;42.01;99913.63;10460321;28;20064;-77
2022/05/15 05:02:59;;;;;;;5.30;2.30;;;;;;;24.06;42.38;100012.25;10459650;28;20049;-78
2022/05/15 05:08:00;;;;;;;5.85;2.17;;;;;;;23.37;42.10;99977.97;10458545;28;20143;-74
2022/05/15 05:13:01;;;;;;;4.38;2.50;;;;;;;22.74;42.67;99939.00;10457570;28;20059;-77
2022/05/15 05:18:02;;;;;;;4.80;2.28;;;;;;;22.96;42.44;100023.72;10420915;28;20037;-76
2022/05/15 05:23:03;;;;;;;7.00;2.75;;;;;;;22.64;42.16;99974.09;10434051;28;20049;-78
2022/05/15 05:28:04;;;;;;;5.45;2.13;;;;;;;22.65;41.88;99959.50;10417793;28;20045;-77
2022/05/15 05:33:07;;;;;;;5.07;2.30;;;;;;;23.04;41.00;100027.84;10416907;28;20131;-77
2022/05/15 05:38:08;;;;;;;5.85;2.33;;;;;;;22.05;40.89;99851.22;10417710;28;20096;-77
2022/05/15 05:43:09;;;;;;;7.50;2.35;;;;;;;23.11;40.71;99998.63;10427797;28;20132;-78
2022/05/15 05:48:11;;;;;;;5.88;2.20;;;;;;;22.61;40.29;99891.50;10436461;28;20486;-77
2022/05/15 05:53:11;;;;;;;6.93;2.25;;;;;;;23.11;39.96;99952.59;10457832;28;20036;-75
2022/05/15 05:58:12;;;;;;;7.25;2.15;;;;;;;23.57;39.72;100001.69;10457304;28;20057;-77
2022/05/15 06:08:32;;;;;;;4.68;2.20;;;;;;;22.78;39.44;99808.25;10457030;28;20087;-74
2022/05/15 06:13:33;;;;;;;5.00;2.67;;;;;;;;;;10434347;28;20379;-81
2022/05/15 06:18:34;;;;;;;7.05;2.30;;;;;;;24.17;38.33;99996.00;10417688;28;20037;-77
2022/05/15 06:23:35;;;;;;;6.50;2.10;;;;;;;23.51;38.09;99869.06;10456182;28;20036;-76
2022/05/15 06:28:36;;;;;;;4.90;2.20;;;;;;;24.15;38.67;99958.28;10456342;28;20099;-75
2022/05/15 06:33:37;;;;;;;4.85;1.95;;;;;;;23.51;35.87;99821.06;10455790;28;20045;-78
2022/05/15 06:38:40;;;;;;;7.32;2.22;;;;;;;24.30;34.32;99938.50;10452126;28;20045;-84
2022/05/15 06:43:41;;;;;;;;;;;;;;;24.95;35.10;99985.84;10455058;28;20052;-77
2022/05/15 06:48:42;;;;;;;4.90;2.03;;;;;;;24.22;33.22;99882.03;10429214;28;20278;-76
2022/05/15 06:53:44;;;;;;;5.07;1.60;;;;;;;25.05;31.76;99988.56;10414809;28;20040;-77
2022/05/15 06:58:45;;;;;;;4.70;1.60;;;;;;;24.41;30.99;99845.13;10414629;28;20060;-73
2022/05/15 07:03:46;;;;;;;4.80;1.58;;;;;;;24.94;30.65;99872.00;10429640;28;20067;-70
2022/05/15 07:08:47;;;;;;;5.13;1.80;;;;;;;25.36;29.46;99917.84;10446761;28;20127;-75
2022/05/15 07:13:47;;;;;;;7.03;1.90;;;;;;;24.97;26.13;99866.00;10450614;28;20409;-74
2022/05/15 07:18:48;;;;;;;7.57;1.75;;;;;;;25.70;25.14;99987.94;10454392;28;20044;-70
2022/05/15 07:23:49;;;;;;;7.43;1.85;;;;;;;25.54;25.08;99948.25;10454820;28;20037;-70
2022/05/15 07:28:51;;;;;;;5.72;1.63;;;;;;;25.82;25.13;99990.38;10449934;28;20162;-70
2022/05/15 07:33:52;;;;;;;4.43;1.48;;;;;;;25.95;24.72;99985.13;10433800;28;20059;-68
2022/05/15 07:38:53;;;;;;;5.85;1.63;;;;;;;26.07;24.30;99962.22;10419348;28;20043;-68
2022/05/15 07:43:54;;;;;;;17.83;2.03;;;;;;;26.42;24.21;99997.44;10421116;28;20507;-70
2022/05/15 07:48:54;;;;;;;2.83;1.40;;;;;;;26.38;24.43;99985.47;10447346;28;20123;-69
2022/05/15 07:53:55;;;;;;;4.90;1.35;;;;;;;26.21;24.53;99985.03;10416712;28;20144;-74
2022/05/15 07:58:56;;;;;;;5.03;1.90;;;;;;;25.58;25.35;99873.19;10412548;28;20052;-69
2022/05/15 08:03:57;;;;;;;8.73;2.13;;;;;;;26.48;25.29;99978.34;10412326;28;20037;-70
2022/05/15 08:08:59;;;;;;;6.82;1.90;;;;;;;25.15;24.66;99775.75;10412417;28;20044;-73
2022/05/15 08:14:01;;;;;;;7.63;1.40;;;;;;;26.47;23.31;99982.13;10411738;28;20108;-68
2022/05/15 08:24:26;;;;;;;5.75;1.60;;;;;;;26.49;22.75;99977.22;10420031;28;20052;-72
2022/05/15 08:29:27;;;;;;;4.20;1.45;;;;;;;25.83;23.54;99856.75;10420013;28;20049;-71
2022/05/15 08:34:29;;;;;;;6.90;2.05;;;;;;;26.54;23.17;99969.06;10420677;28;20049;-70
2022/05/15 08:39:31;;;;;;;3.47;1.50;;;;;;;26.44;23.26;99969.09;10419940;28;20041;-73
2022/05/15 08:44:36;;;;;;;2.75;1.25;;;;;;;26.17;23.07;99888.66;10418959;28;20041;-71
2022/05/15 08:49:39;;;;;;;3.83;1.65;;;;;;;26.79;22.91;99946.25;10433746;28;20493;-67
2022/05/15 08:55:15;;;;;;;5.38;1.55;;;;;;;26.47;23.94;99837.78;10419440;28;20053;-69
2022/05/15 09:00:21;;;;;;;5.50;1.65;;;;;;;27.01;23.48;99907.63;10446547;28;20091;-69
2022/05/15 09:05:27;;;;;;;5.43;1.77;;;;;;;26.96;23.95;99907.69;10459649;28;20393;-70
2022/05/15 09:10:58;;;;;;;4.03;1.58;;;;;;;27.39;25.25;99935.06;10459111;28;20041;-69
2022/05/15 09:16:02;;;;;;;6.85;2.80;;;;;;;27.19;25.28;99909.66;10454216;28;20132;-69
2022/05/15 09:21:08;;;;;;;4.97;1.90;;;;;;;25.87;24.76;99720.97;10458166;28;20405;-72
2022/05/15 09:26:25;;;;;;;3.90;1.67;;;;;;;27.23;23.67;99897.06;10458486;28;20041;-69
2022/05/15 09:31:35;;;;;;;5.35;1.52;;;;;;;27.15;24.70;99905.88;10457862;28;20497;-71
2022/05/15 09:36:36;;;;;;;3.05;1.70;;;;;;;27.04;24.77;99883.34;10458769;28;20037;-70
2022/05/15 09:47:19;;;;;;;3.08;1.40;;;;;;;26.54;24.75;99790.09;10457040;28;20287;-67
2022/05/15 09:52:41;;;;;;;5.82;2.08;;;;;;;27.70;25.73;99894.59;10440801;28;20069;-68
2022/05/15 09:57:57;;;;;;;8.20;2.20;;;;;;;27.62;25.01;99857.84;10458138;28;20067;-70
2022/05/15 10:03:22;;;;;;;4.05;1.65;;;;;;;27.19;24.16;99795.13;10456945;28;20080;-71
2022/05/15 10:08:26;;;;;;;6.65;1.80;;;;;;;27.71;24.57;99883.38;10457491;28;20052;-69
2022/05/15 10:13:33;;;;;;;8.55;1.65;;;;;;;27.73;24.89;99883.06;10456763;28;20124;-69
2022/05/15 10:19:00;;;;;;;5.05;1.80;;;;;;;27.64;24.59;99872.03;10456671;28;20041;-72
2022/05/15 10:24:05;;;;;;;3.65;1.70;;;;;;;27.49;25.03;99850.38;10457273;28;20037;-71
2022/05/15 10:29:18;;;;;;;3.53;1.80;;;;;;;27.60;24.75;99859.25;10456783;28;20052;-70
2022/05/15 10:34:25;;;;;;;3.53;1.85;;;;;;;27.53;25.22;99860.44;10457384;28;20052;-73
2022/05/15 10:40:14;;;;;;;11.35;3.20;;;;;;;27.59;25.43;99858.44;10454266;28;20045;-69
2022/05/15 10:45:25;;;;;;;3.92;1.88;;;;;;;27.48;26.11;99838.66;10412667;28;20053;-69
2022/05/15 10:50:29;;;;;;;3.70;1.60;;;;;;;27.59;26.17;99863.91;10413742;28;20044;-70
2022/05/15 11:01:32;;;;;;;5.18;2.00;;;;;;;27.58;26.05;99862.25;10413739;28;20045;-71
2022/05/15 11:06:36;;;;;;;4.53;2.20;;;;;;;27.47;27.30;99844.41;10412050;28;20440;-69
2022/05/15 11:11:40;;;;;;;4.75;2.10;;;;;;;26.97;28.29;99726.69;10414014;28;20485;-69
2022/05/15 11:17:13;;;;;;;4.05;2.28;;;;;;;27.74;26.47;99830.13;10413639;28;20033;-71
2022/05/15 11:22:31;;;;;;;5.65;2.10;;;;;;;26.82;27.04;99705.88;10413158;28;20048;-73
2022/05/15 11:27:48;;;;;;;3.92;2.03;;;;;;;27.65;27.41;99830.00;10413277;28;20095;-70
2022/05/15 11:32:52;;;;;;;8.00;2.20;;;;;;;28.01;27.80;99834.97;10413319;28;20056;-69
2022/05/15 11:38:27;;;;;;;5.72;2.30;;;;;;;28.12;27.07;99833.69;10411641;28;20040;-71
2022/05/15 11:43:30;;;;;;;4.22;1.75;;;;;;;27.26;27.62;99705.59;10412494;28;20048;-70
2022/05/15 11:48:39;;;;;;;5.72;2.97;;;;;;;28.09;27.22;99833.47;10412952;28;20041;-70
2022/05/15 11:53:49;;;;;;;3.22;1.90;;;;;;;28.10;27.70;99833.19;10413805;28;20040;-70
2022/05/15 11:58:55;;;;;;;5.55;1.70;;;;;;;28.13;27.75;99829.84;10421154;28;20107;-71
2022/05/15 12:03:59;;;;;;;5.13;1.80;;;;;;;28.10;27.24;99835.09;10420637;28;20049;-70
2022/05/15 12:09:18;;;;;;;7.78;2.05;;;;;;;27.59;27.42;99718.50;10420073;28;20047;-70
2022/05/15 12:14:31;;;;;;;4.93;2.22;;;;;;;28.26;27.89;99830.19;10420957;28;20046;-71
2022/05/15 12:19:37;;;;;;;4.68;2.00;;;;;;;28.20;27.76;99829.47;10420977;28;20079;-70
2022/05/15 12:24:43;;;;;;;5.18;2.20;;;;;;;27.40;28.00;99678.41;10419706;28;20038;-70
2022/05/15 12:30:04;;;;;;;6.05;2.00;;;;;;;28.37;27.81;99823.47;10423410;28;20041;-69
2022/05/15 12:35:10;;;;;;;5.40;1.70;;;;;;;27.78;28.40;99711.13;10440234;28;20041;-70
2022/05/15 12:40:11;;;;;;;8.38;1.80;;;;;;;28.40;28.40;99811.94;10432673;28;20041;-70
2022/05/15 12:45:20;;;;;;;4.35;1.60;;;;;;;28.00;27.75;99759.63;10459951;28;20075;-71
2022/05/15 12:50:22;;;;;;;5.90;1.90;;;;;;;27.95;28.44;99776.91;10419412;28;20041;-70
2022/05/15 12:55:24;;;;;;;3.63;1.98;;;;;;;28.13;28.53;99808.00;10418010;28;20454;-69
2022/05/15 13:00:32;;;;;;;4.57;1.98;;;;;;;27.63;28.17;99706.69;10418403;28;20044;-69
2022/05/15 13:05:38;;;;;;;4.32;1.58;;;;;;;28.33;28.87;99812.34;10417275;28;20045;-69
2022/05/15 13:10:55;;;;;;;4.40;1.60;;;;;;;28.22;28.79;99800.75;10447941;28;20112;-70
2022/05/15 13:15:58;;;;;;;3.30;1.60;;;;;;;28.07;29.07;99811.13;10449102;28;20044;-70
2022/05/15 13:21:07;;;;;;;4.47;1.85;;;;;;;27.98;29.61;99810.97;10458987;28;20084;-74
2022/05/15 13:26:13;;;;;;;3.95;1.70;;;;;;;27.83;29.49;99803.03;10458711;28;20049;-70
2022/05/15 13:31:14;;;;;;;10.43;1.90;;;;;;;27.66;30.53;99809.78;10454712;28;20497;-70
2022/05/15 13:36:16;;;;;;;5.63;1.77;;;;;;;26.26;30.91;99592.91;10456727;28;20102;-70
2022/05/15 13:46:40;;;;;;;6.78;1.83;;;;;;;26.70;30.93;99679.03;10455406;28;20420;-70
2022/05/15 13:51:48;;;;;;;6.22;2.05;;;;;;;27.69;31.89;99806.44;10449562;28;20424;-70
2022/05/15 13:56:55;;;;;;;2.53;1.33;;;;;;;26.91;32.45;99712.28;10435615;28;20057;-71
2022/05/15 14:02:07;;;;;;;3.13;1.50;;;;;;;26.86;32.81;99690.56;10412354;28;20045;-69
2022/05/15 14:07:09;;;;;;;5.60;1.83;;;;;;;27.61;31.52;99811.75;10414832;28;20053;-71
2022/05/15 14:12:13;;;;;;;5.43;2.20;;;;;;;26.91;32.05;99706.03;10416309;28;20041;-74
2022/05/15 14:17:18;;;;;;;6.93;1.77;;;;;;;27.29;32.53;99799.66;10436068;28;20099;-76
2022/05/15 14:22:19;;;;;;;7.60;1.50;;;;;;;27.19;32.81;99806.03;10436999;28;20128;-76
2022/05/15 14:27:22;;;;;;;5.45;1.65;;;;;;;26.82;34.11;99807.50;10420961;28;20552;-77
2022/05/15 14:32:29;;;;;;;12.55;2.30;;;;;;;26.63;34.84;99799.25;10446100;28;20055;-76
2022/05/15 14:37:30;;;;;;;27.52;2.40;;;;;;;26.40;34.82;99786.38;10456596;28;20101;-76
2022/05/15 14:42:31;;;;;;;4.53;1.85;;;;;;;25.78;35.83;99685.34;10455597;28;20476;-76
2022/05/15 14:47:34;;;;;;;13.05;7.78;;;;;;;26.44;35.89;99811.13;10455704;28;20037;-76
2022/05/15 14:52:35;;;;;;;;;;;;;;;26.62;35.54;99808.56;10456247;28;20049;-77
2022/05/15 14:57:35;;;;;;;25.63;17.45;;;;;;;25.50;36.83;99701.34;10456242;28;19925;-76
2022/05/15 15:02:36;;;;;;;8.65;4.20;;;;;;;25.22;38.04;99702.09;10454900;28;20036;-76
2022/05/15 15:07:37;;;;;;;10.77;5.38;;;;;;;25.45;38.26;99766.63;10456172;28;20040;-76
2022/05/15 15:12:38;;;;;;;32.75;22.98;;;;;;;25.48;39.01;99834.06;10455531;28;20049;-76
2022/05/15 15:17:38;;;;;;;26.30;17.77;;;;;;;24.66;39.00;99699.59;10454568;28;20041;-76
2022/05/15 15:22:39;;;;;;;63.05;43.63;;;;;;;24.40;39.88;99688.75;10454179;28;20045;-77
2022/05/15 15:27:40;;;;;;;34.90;25.70;;;;;;;24.89;40.73;99810.34;10452294;28;20381;-76
2022/05/15 15:32:41;;;;;;;33.72;22.40;;;;;;;24.79;41.77;99832.09;10454349;28;20037;-76
2022/05/15 15:43:01;;;;;;;34.53;21.95;;;;;;;23.63;43.25;99705.06;10453749;28;20048;-74
2022/05/15 15:48:01;;;;;;;45.83;32.05;;;;;;;23.87;44.46;99786.75;10453385;28;20044;-73
2022/05/15 15:53:03;;;;;;;84.22;47.83;;;;;;;23.76;45.77;99838.53;10454046;28;20037;-75
2022/05/15 15:58:08;;;;;;;50.47;24.60;;;;;;;23.45;46.50;99824.84;10453299;28;20057;-74
2022/05/15 16:03:09;;;;;;;23.77;14.88;;;;;;;23.18;46.75;99831.25;10453776;28;20045;-74
2022/05/15 16:08:11;;;;;;;23.52;13.82;;;;;;;23.00;47.86;99856.06;10454614;28;20103;-75
2022/05/15 16:13:12;;;;;;;53.88;31.02;;;;;;;22.70;48.88;99867.47;10453890;28;20123;-75
2022/05/15 16:18:16;;;;;;;67.68;43.60;;;;;;;22.33;49.30;99860.97;10454203;28;20529;-75
2022/05/15 16:23:19;;;;;;;49.35;30.33;;;;;;;22.10;50.31;99886.41;10448477;28;20036;-74
2022/05/15 16:28:22;;;;;;;62.28;37.50;;;;;;;21.91;51.23;99885.13;10427319;28;20550;-75
2022/05/15 16:33:22;;;;;;;54.63;35.60;;;;;;;21.50;51.19;99859.50;10444355;28;20045;-74
2022/05/15 16:38:23;;;;;;;41.15;23.33;;;;;;;20.45;51.43;99719.84;10453117;28;20090;-74
2022/05/15 16:43:24;;;;;;;79.72;50.67;;;;;;;21.42;51.92;99904.84;10461411;28;20044;-74
2022/05/15 16:48:25;;;;;;;61.10;38.47;;;;;;;20.91;52.59;99850.09;10461099;28;20049;-74
2022/05/15 16:53:26;;;;;;;22.08;14.95;;;;;;;20.62;52.78;99826.97;10461204;28;20044;-73
2022/05/15 16:58:27;;;;;;;14.38;7.60;;;;;;;20.87;53.10;99889.41;10460129;28;20136;-74
2022/05/15 17:03:29;;;;;;;13.18;5.15;;;;;;;20.83;54.04;99922.56;10460128;28;20044;-73
2022/05/15 17:08:30;;;;;;;16.92;5.10;;;;;;;20.70;54.44;99940.72;10459994;28;20661;-74
2022/05/15 17:13:32;;;;;;;13.07;5.07;;;;;;;19.95;55.27;99860.88;10457752;28;20131;-75
2022/05/15 17:18:32;;;;;;;7.63;4.55;;;;;;;20.52;55.98;99962.53;10458225;28;20044;-74
2022/05/15 17:23:33;;;;;;;17.63;8.30;;;;;;;19.86;57.07;99916.22;10459299;28;20037;-73
2022/05/15 17:39:15;;;;;;;23.95;13.75;;;;;;;18.83;60.04;99888.13;10421758;28;20560;-75
2022/05/15 17:44:16;;;;;;;25.07;14.33;;;;;;;19.33;60.08;99985.41;10456166;28;20037;-75
2022/05/15 17:49:17;;;;;;;40.78;17.40;;;;;;;18.15;60.83;99839.09;10428877;28;20114;-75
2022/05/15 17:54:18;;;;;;;32.70;16.27;;;;;;;18.93;61.50;99985.22;10415746;28;20053;-74
2022/05/15 17:59:18;;;;;;;29.02;14.93;;;;;;;18.81;61.84;100005.94;10424311;28;20045;-74
2022/05/15 18:04:19;;;;;;;42.33;20.55;;;;;;;18.71;62.45;99995.69;10433302;28;20048;-74
2022/05/15 18:09:20;;;;;;;30.83;15.00;;;;;;;18.18;63.63;99935.41;10431268;28;20046;-74
2022/05/15 18:14:21;;;;;;;120.15;18.02;;;;;;;17.62;64.85;99885.47;10415904;28;20043;-74
2022/05/15 18:19:22;;;;;;;17.58;10.32;;;;;;;17.90;66.73;99992.41;10415296;28;20412;-74
2022/05/15 18:24:23;;;;;;;17.45;9.35;;;;;;;17.41;67.87;99958.41;10415633;28;20041;-74
2022/05/15 18:29:25;;;;;;;16.73;8.50;;;;;;;17.69;68.47;99998.22;10415105;28;20127;-74
2022/05/15 18:34:26;;;;;;;19.48;8.95;;;;;;;17.11;69.00;99910.78;10415434;28;20432;-74
2022/05/15 18:39:26;;;;;;;15.25;8.52;;;;;;;17.34;69.50;99986.16;10414597;28;20052;-74
2022/05/15 18:44:31;;;;;;;19.20;7.53;;;;;;;17.12;70.28;99960.75;10423898;28;20043;-73
2022/05/15 18:49:33;;;;;;;21.52;8.63;;;;;;;17.07;69.66;99956.03;10419752;28;20049;-74
2022/05/15 18:59:55;;;;;;;16.65;9.15;;;;;;;16.91;69.87;99942.38;10445477;28;20033;-74
2022/05/15 19:04:56;;;;;;;17.20;9.23;;;;;;;17.05;69.41;99984.13;10449665;28;20040;-74
2022/05/15 19:09:56;;;;;;;18.58;9.85;;;;;;;16.15;70.08;99872.56;10450499;28;20043;-74
2022/05/15 19:14:57;;;;;;;25.17;11.65;;;;;;;15.91;70.30;99841.16;10449777;28;20047;-74
2022/05/15 19:19:58;;;;;;;29.05;11.98;;;;;;;16.75;70.68;99986.59;10453825;28;20037;-74
2022/05/15 19:24:59;;;;;;;34.42;12.95;;;;;;;15.88;71.36;99865.69;10445666;28;20044;-74
2022/05/15 19:30:00;;;;;;;23.17;10.38;;;;;;;16.49;72.29;99974.22;10430559;28;21594;-74
2022/05/15 19:35:01;;;;;;;18.42;9.95;;;;;;;15.00;73.45;99769.91;10440048;28;20128;-74
2022/05/15 19:40:03;;;;;;;24.73;9.85;;;;;;;16.24;73.87;99974.94;10454008;28;20044;-74
2022/05/15 19:45:05;;;;;;;20.88;10.93;;;;;;;15.71;73.17;99866.19;10415185;28;20041;-74
2022/05/15 19:50:06;;;;;;;37.13;16.15;;;;;;;16.12;72.79;99933.78;10412165;28;20073;-73
2022/05/15 19:55:08;;;;;;;18.65;10.98;;;;;;;16.47;72.68;100003.91;10412291;28;20065;-73
2022/05/15 20:00:13;;;;;;;17.00;10.45;;;;;;;16.32;75.06;99969.34;10412327;28;20132;-74
2022/05/15 20:15:53;;;;;;;14.02;6.68;;;;;;;16.62;73.10;99971.44;10416830;28;20061;-74
2022/05/15 20:20:54;;;;;;;15.65;6.68;;;;;;;16.57;73.64;99960.53;10421260;28;20467;-74
2022/05/15 20:25:55;;;;;;;18.00;6.32;;;;;;;16.94;73.91;100012.50;10421173;28;20041;-73
2022/05/15 20:30:55;;;;;;;13.93;6.53;;;;;;;16.15;73.38;99874.41;10420110;28;20041;-73
2022/05/15 20:35:56;;;;;;;11.75;7.65;;;;;;;16.38;73.02;99911.38;10419478;28;20048;-74
2022/05/15 20:40:57;;;;;;;24.55;7.13;;;;;;;17.00;73.06;100011.63;10419930;28;20120;-73
2022/05/15 20:45:58;;;;;;;11.68;6.05;;;;;;;17.04;73.24;100020.06;10445359;28;20060;-74
2022/05/15 20:50:59;;;;;;;15.20;6.90;;;;;;;16.78;73.16;99970.94;10460198;28;20531;-73
2022/05/15 20:56:00;;;;;;;18.67;7.15;;;;;;;16.37;73.56;99896.34;10460512;28;20559;-73
2022/05/15 21:01:03;;;;;;;16.75;7.00;;;;;;;17.07;74.90;100039.22;10460819;28;20074;-73
2022/05/15 21:06:04;;;;;;;14.10;6.97;;;;;;;16.85;74.21;99987.81;10460245;28;20040;-76
2022/05/15 21:11:05;;;;;;;9.57;6.28;;;;;;;17.15;73.74;100019.38;10459479;28;20033;-73
2022/05/15 21:16:07;;;;;;;10.98;6.60;;;;;;;16.83;73.70;99973.78;10459109;28;20041;-73
2022/05/15 21:21:08;;;;;;;10.52;6.18;;;;;;;17.14;73.68;100041.03;10460095;28;20040;-73
2022/05/15 21:26:10;;;;;;;11.98;6.55;;;;;;;16.99;74.27;100030.63;10458747;28;20064;-73
2022/05/15 21:31:10;;;;;;;14.63;6.95;;;;;;;17.06;74.63;100036.78;10457343;28;20568;-73
2022/05/15 21:36:11;;;;;;;8.60;5.57;;;;;;;16.34;74.79;99931.63;10458333;28;20037;-73
2022/05/15 21:46:31;;;;;;;12.27;5.80;;;;;;;16.53;75.05;99957.47;10458314;28;20473;-73
2022/05/15 21:51:32;;;;;;;8.10;5.20;;;;;;;16.10;74.77;99882.28;10457579;28;20044;-73
2022/05/15 21:56:33;;;;;;;15.48;6.63;;;;;;;16.15;74.82;99890.47;10458289;28;20056;-76
2022/05/15 22:01:34;;;;;;;15.68;5.80;;;;;;;17.05;74.75;100045.84;10457417;28;20140;-73
2022/05/15 22:06:35;;;;;;;13.68;5.55;;;;;;;16.17;74.74;99891.09;10457654;28;20408;-73
2022/05/15 22:11:36;;;;;;;9.45;5.47;;;;;;;17.02;74.65;100038.25;10457362;28;20048;-73
2022/05/15 22:16:37;;;;;;;9.07;4.85;;;;;;;17.16;74.07;100063.13;10457307;28;20484;-73
2022/05/15 22:21:38;;;;;;;8.00;4.90;;;;;;;16.85;73.98;100011.94;10457696;28;20519;-73
2022/05/15 22:26:39;;;;;;;6.07;4.47;;;;;;;16.96;73.92;100034.59;10456295;28;20071;-73
2022/05/15 22:31:40;;;;;;;9.70;4.78;;;;;;;17.06;74.47;100047.53;10456129;28;20496;-73
2022/05/15 22:36:41;;;;;;;8.50;4.80;;;;;;;16.87;75.13;100012.56;10456748;28;20037;-73
2022/05/15 22:41:41;;;;;;;7.55;4.90;;;;;;;16.81;75.67;100010.75;10455845;28;20048;-73
2022/05/15 22:46:42;;;;;;;5.63;4.60;;;;;;;16.87;75.90;100031.34;10452601;28;20033;-73
2022/05/15 22:51:43;;;;;;;9.60;5.13;;;;;;;16.57;76.55;100008.78;10454727;28;20049;-73
2022/05/15 22:56:44;;;;;;;9.30;5.03;;;;;;;16.62;76.82;100033.94;10455712;28;20484;-73
2022/05/15 23:01:44;;;;;;;15.57;4.93;;;;;;;14.97;76.85;99795.19;10455961;28;20075;-73
2022/05/15 23:12:05;;;;;;;11.35;4.75;;;;;;;16.37;77.53;100052.63;10455102;28;20064;-73
2022/05/15 23:17:06;;;;;;;7.55;4.43;;;;;;;16.03;77.71;100010.91;10455163;28;20037;-73
2022/05/15 23:22:06;;;;;;;6.82;4.28;;;;;;;16.21;77.58;100037.00;10455000;28;20037;-73
2022/05/15 23:27:08;;;;;;;8.02;4.72;;;;;;;15.85;77.96;100014.25;10454672;28;20463;-74
2022/05/15 23:32:11;;;;;;;6.70;4.78;;;;;;;15.36;78.49;99940.63;10455643;28;20067;-73
2022/05/15 23:37:12;;;;;;;7.78;4.07;;;;;;;15.80;78.55;100043.53;10454392;28;20037;-73
2022/05/15 23:42:13;;;;;;;7.55;4.43;;;;;;;15.58;79.15;100023.34;10453878;28;20048;-73
2022/05/15 23:47:14;;;;;;;6.95;5.05;;;;;;;15.03;79.41;99940.66;10454198;28;20083;-73
2022/05/15 23:52:17;;;;;;;7.93;4.90;;;;;;;15.29;80.42;100004.88;10477739;28;20074;-74
2022/05/15 23:57:18;;;;;;;12.85;4.75;;;;;;;15.44;80.19;100052.00;10462855;28;20065;-73
